createdAt,value
2023-02-09T00:01:04.516Z,31.70
2023-02-09T00:03:39.806Z,32.53
2023-02-09T00:06:16.039Z,30.92
2023-02-09T00:08:50.922Z,29.93
2023-02-09T00:11:47.415Z,31.38
2023-02-09T00:14:22.158Z,31.90
2023-02-09T00:16:56.982Z,30.98
2023-02-09T00:19:33.381Z,31.58
2023-02-09T00:22:07.240Z,31.47
2023-02-09T00:24:40.947Z,32.93
2023-02-09T00:27:14.744Z,30.65
2023-02-09T00:29:48.359Z,31.70
2023-02-09T00:32:22.277Z,33.50
2023-02-09T00:34:57.356Z,31.38
2023-02-09T00:37:31.140Z,32.37
2023-02-09T00:40:05.296Z,30.45
2023-02-09T00:42:39.267Z,31.33
2023-02-09T00:45:12.873Z,34.10
2023-02-09T00:47:46.657Z,32.10
2023-02-09T00:50:21.755Z,32.07
2023-02-09T00:52:55.737Z,32.28
2023-02-09T00:55:29.419Z,30.60
2023-02-09T00:58:03.282Z,32.30
2023-02-09T01:00:37.108Z,33.23
2023-02-09T01:03:10.933Z,33.07
2023-02-09T01:05:45.973Z,33.87
2023-02-09T01:08:19.829Z,33.90
2023-02-09T01:10:53.421Z,32.13
2023-02-09T01:13:27.237Z,34.45
2023-02-09T01:16:00.869Z,33.33
2023-02-09T01:18:34.745Z,32.17
2023-02-09T01:21:13.241Z,32.77
2023-02-09T01:26:21.933Z,31.83
2023-02-09T01:28:55.963Z,32.90
2023-02-09T01:31:33.671Z,32.03
2023-02-09T01:34:07.632Z,32.78
2023-02-09T01:36:43.170Z,33.43
2023-02-09T01:39:17.007Z,31.07
2023-02-09T01:41:50.752Z,33.47
2023-02-09T01:45:02.181Z,32.70
2023-02-09T01:47:44.118Z,32.97
2023-02-09T01:50:18.823Z,31.30
2023-02-09T01:52:54.864Z,32.57
2023-02-09T01:55:33.686Z,32.77
2023-02-09T01:58:11.795Z,30.67
2023-02-09T02:00:47.391Z,31.50
2023-02-09T02:03:24.147Z,32.03
2023-02-09T02:06:01.428Z,30.90
2023-02-09T02:08:40.116Z,31.17
2023-02-09T02:11:14.588Z,32.37
2023-02-09T02:13:48.431Z,34.07
2023-02-09T02:16:36.000Z,32.83
2023-02-09T02:19:48.170Z,33.20
2023-02-09T02:22:54.210Z,32.23
2023-02-09T02:26:16.358Z,30.67
2023-02-09T02:29:24.123Z,33.30
2023-02-09T02:32:31.682Z,32.38
2023-02-09T02:35:12.192Z,31.48
2023-02-09T02:37:57.752Z,31.50
2023-02-09T02:40:42.788Z,33.13
2023-02-09T02:43:24.470Z,33.13
2023-02-09T02:46:03.016Z,30.43
2023-02-09T02:48:42.663Z,31.00
2023-02-09T02:51:21.473Z,30.10
2023-02-09T02:53:58.149Z,32.58
2023-02-09T02:56:37.569Z,32.40
2023-02-09T02:59:15.357Z,31.47
2023-02-09T03:01:56.558Z,30.77
2023-02-09T03:04:33.819Z,29.60
2023-02-09T03:07:08.943Z,30.90
2023-02-09T03:09:49.702Z,30.87
2023-02-09T03:12:33.377Z,31.57
2023-02-09T03:15:17.208Z,31.20
2023-02-09T03:17:58.959Z,30.23
2023-02-09T03:20:42.831Z,29.70
2023-02-09T03:23:32.812Z,31.10
2023-02-09T03:26:11.161Z,30.83
2023-02-09T03:28:47.542Z,29.70
2023-02-09T03:31:23.056Z,28.47
2023-02-09T03:33:58.452Z,29.47
2023-02-09T03:36:37.234Z,30.63
2023-02-09T03:39:11.335Z,28.77
2023-02-09T03:41:44.891Z,30.23
2023-02-09T03:44:27.387Z,28.83
2023-02-09T03:47:03.002Z,28.67
2023-02-09T03:49:39.360Z,27.57
2023-02-09T03:52:16.806Z,27.97
2023-02-09T03:54:50.739Z,28.43
2023-02-09T03:57:24.362Z,27.67
2023-02-09T03:59:58.106Z,27.60
2023-02-09T04:02:31.671Z,27.03
2023-02-09T04:05:06.096Z,27.77
2023-02-09T04:07:41.384Z,29.73
2023-02-09T04:10:15.300Z,28.17
2023-02-09T04:12:48.864Z,27.70
2023-02-09T04:15:22.696Z,28.40
2023-02-09T04:17:56.338Z,28.23
2023-02-09T04:20:30.213Z,28.57
2023-02-09T04:23:06.169Z,28.30
2023-02-09T04:25:39.913Z,28.80
2023-02-09T04:28:13.508Z,28.67
2023-02-09T04:30:52.917Z,29.20
2023-02-09T04:33:27.038Z,27.27
2023-02-09T04:36:00.835Z,28.97
2023-02-09T04:38:36.068Z,26.93
2023-02-09T04:41:10.300Z,26.73
2023-02-09T04:43:43.970Z,25.03
2023-02-09T04:46:19.673Z,27.47
2023-02-09T04:48:53.285Z,26.07
2023-02-09T04:51:27.229Z,25.90
2023-02-09T04:54:02.165Z,25.33
2023-02-09T04:56:37.258Z,23.70
2023-02-09T04:59:29.175Z,23.70
2023-02-09T05:02:02.988Z,23.87
2023-02-09T05:04:36.773Z,26.00
2023-02-09T05:07:10.512Z,24.73
2023-02-09T05:09:45.595Z,23.80
2023-02-09T05:12:19.504Z,25.37
2023-02-09T05:14:53.182Z,23.27
2023-02-09T05:17:27.064Z,22.90
2023-02-09T05:20:00.836Z,24.10
2023-02-09T05:22:34.985Z,22.23
2023-02-09T05:25:10.614Z,22.25
2023-02-09T05:27:44.722Z,23.20
2023-02-09T05:30:18.641Z,23.17
2023-02-09T05:32:52.531Z,22.93
2023-02-09T05:35:26.947Z,22.47
2023-02-09T05:38:00.977Z,21.67
2023-02-09T05:40:35.874Z,22.90
2023-02-09T05:43:09.984Z,21.57
2023-02-09T05:45:44.423Z,22.27
2023-02-09T05:48:18.197Z,22.02
2023-02-09T05:50:51.980Z,21.03
2023-02-09T05:53:25.719Z,20.93
2023-02-09T05:56:00.579Z,20.30
2023-02-09T05:58:34.688Z,20.63
2023-02-09T06:01:08.283Z,21.20
2023-02-09T06:03:42.064Z,20.40
2023-02-09T06:06:15.786Z,20.80
2023-02-09T06:08:49.536Z,19.77
2023-02-09T06:11:24.574Z,19.73
2023-02-09T06:13:58.698Z,22.45
2023-02-09T06:16:32.456Z,21.07
2023-02-09T06:19:06.333Z,19.52
2023-02-09T06:21:39.990Z,18.93
2023-02-09T06:24:14.976Z,18.95
2023-02-09T06:26:50.031Z,19.40
2023-02-09T06:29:24.328Z,19.43
2023-02-09T06:31:58.021Z,18.08
2023-02-09T06:34:31.948Z,18.83
2023-02-09T06:37:05.516Z,20.13
2023-02-09T06:39:39.470Z,18.77
2023-02-09T06:42:14.826Z,18.70
2023-02-09T06:44:48.920Z,17.90
2023-02-09T06:47:22.437Z,18.38
2023-02-09T06:49:56.222Z,18.35
2023-02-09T06:52:30.011Z,18.07
2023-02-09T06:55:03.926Z,18.88
2023-02-09T06:57:39.819Z,18.23
2023-02-09T07:00:15.062Z,17.60
2023-02-09T07:02:49.147Z,17.80
2023-02-09T07:05:23.056Z,16.83
2023-02-09T07:07:57.678Z,16.77
2023-02-09T07:10:31.568Z,17.57
2023-02-09T07:13:06.694Z,16.37
2023-02-09T07:15:40.538Z,16.30
2023-02-09T07:18:14.256Z,16.10
2023-02-09T07:20:56.443Z,17.43
2023-02-09T07:23:30.694Z,16.73
2023-02-09T07:26:05.723Z,15.70
2023-02-09T07:28:40.801Z,14.52
2023-02-09T07:31:16.918Z,16.45
2023-02-09T07:33:50.672Z,15.50
2023-02-09T07:36:25.935Z,15.07
2023-02-09T07:38:59.878Z,15.30
2023-02-09T07:41:34.243Z,14.65
2023-02-09T07:44:10.434Z,14.33
2023-02-09T07:46:44.496Z,14.48
2023-02-09T07:49:18.222Z,14.07
2023-02-09T07:51:52.145Z,14.30
2023-02-09T07:54:25.787Z,13.93
2023-02-09T07:56:59.645Z,13.43
2023-02-09T07:59:34.986Z,12.90
2023-02-09T08:02:17.882Z,14.90
2023-02-09T08:04:52.002Z,14.27
2023-02-09T08:07:26.641Z,13.95
2023-02-09T08:10:01.180Z,13.07
2023-02-09T08:12:54.369Z,13.88
2023-02-09T08:15:36.008Z,14.63
2023-02-09T08:18:13.865Z,14.27
2023-02-09T08:20:48.534Z,14.35
2023-02-09T08:23:27.778Z,13.43
2023-02-09T08:26:06.110Z,12.52
2023-02-09T08:28:44.984Z,13.63
2023-02-09T08:31:22.276Z,13.05
2023-02-09T08:33:56.241Z,11.25
2023-02-09T08:36:30.207Z,11.27
2023-02-09T08:39:05.326Z,9.48
2023-02-09T08:41:38.988Z,9.85
2023-02-09T08:44:12.985Z,11.00
2023-02-09T08:46:48.047Z,9.32
2023-02-09T08:49:21.895Z,10.32
2023-02-09T08:51:55.806Z,10.95
2023-02-09T08:54:29.604Z,9.88
2023-02-09T08:57:03.512Z,10.10
2023-02-09T08:59:37.270Z,10.95
2023-02-09T09:02:12.254Z,10.05
2023-02-09T09:04:46.924Z,10.38
2023-02-09T09:07:20.495Z,11.02
2023-02-09T09:09:54.307Z,10.25
2023-02-09T09:12:27.934Z,13.27
2023-02-09T09:15:01.865Z,10.98
2023-02-09T09:17:37.053Z,10.20
2023-02-09T09:20:11.675Z,9.85
2023-02-09T09:22:45.499Z,10.55
2023-02-09T09:25:19.626Z,9.90
2023-02-09T09:27:53.325Z,10.15
2023-02-09T09:30:27.946Z,9.98
2023-02-09T09:33:03.528Z,9.25
2023-02-09T09:35:37.400Z,10.50
2023-02-09T09:38:11.024Z,10.77
2023-02-09T09:40:46.651Z,10.93
2023-02-09T09:43:25.471Z,9.27
2023-02-09T09:45:59.984Z,9.93
2023-02-09T09:48:43.227Z,9.85
2023-02-09T09:51:21.372Z,9.45
2023-02-09T09:53:57.864Z,10.63
2023-02-09T09:56:33.514Z,10.70
2023-02-09T09:59:07.365Z,9.77
2023-02-09T10:01:41.265Z,9.95
2023-02-09T10:04:17.155Z,9.55
2023-02-09T10:06:59.914Z,9.32
2023-02-09T10:09:39.997Z,9.20
2023-02-09T10:12:24.284Z,9.88
2023-02-09T10:14:58.027Z,9.73
2023-02-09T10:17:31.743Z,10.25
2023-02-09T10:20:09.527Z,9.57
2023-02-09T10:22:45.180Z,8.90
2023-02-09T10:25:39.375Z,10.30
2023-02-09T10:28:20.155Z,10.20
2023-02-09T10:30:56.996Z,9.63
2023-02-09T10:33:41.727Z,9.70
2023-02-09T10:36:27.950Z,9.63
2023-02-09T10:39:14.050Z,10.07
2023-02-09T10:41:50.945Z,11.50
2023-02-09T10:44:26.851Z,9.45
2023-02-09T10:47:12.007Z,10.32
2023-02-09T10:49:53.636Z,9.15
2023-02-09T10:52:34.411Z,9.00
2023-02-09T10:55:17.433Z,9.55
2023-02-09T10:57:51.066Z,9.90
2023-02-09T11:00:33.345Z,10.35
2023-02-09T11:03:16.785Z,9.50
2023-02-09T11:06:00.218Z,10.15
2023-02-09T11:08:42.736Z,9.95
2023-02-09T11:11:32.192Z,9.73
2023-02-09T11:14:12.791Z,9.18
2023-02-09T11:17:15.639Z,9.23
2023-02-09T11:20:02.056Z,9.82
2023-02-09T11:23:03.514Z,10.23
2023-02-09T11:25:46.657Z,10.30
2023-02-09T11:28:32.653Z,9.55
2023-02-09T11:31:22.192Z,10.52
2023-02-09T11:34:07.905Z,10.18
2023-02-09T11:36:51.411Z,9.27
2023-02-09T11:39:38.280Z,8.75
2023-02-09T11:42:34.837Z,9.82
2023-02-09T11:45:13.186Z,9.43
2023-02-09T11:47:59.183Z,9.70
2023-02-09T11:50:40.748Z,10.45
2023-02-09T11:53:24.547Z,9.95
2023-02-09T11:56:01.686Z,10.02
2023-02-09T11:58:45.366Z,10.77
2023-02-09T12:01:41.102Z,11.32
2023-02-09T12:04:20.691Z,10.57
2023-02-09T12:06:57.286Z,9.60
2023-02-09T12:09:44.569Z,10.48
2023-02-09T12:12:26.599Z,10.20
2023-02-09T12:15:14.749Z,10.98
2023-02-09T12:17:52.310Z,10.32
2023-02-09T12:20:30.128Z,10.02
2023-02-09T12:23:07.927Z,9.05
2023-02-09T12:25:59.985Z,9.25
2023-02-09T12:28:45.117Z,9.55
2023-02-09T12:31:24.152Z,10.02
2023-02-09T12:37:27.250Z,10.70
2023-02-09T12:40:36.189Z,9.63
2023-02-09T12:43:28.804Z,10.80
2023-02-09T12:46:23.646Z,10.65
2023-02-09T12:49:10.487Z,10.18
2023-02-09T12:52:07.155Z,10.30
2023-02-09T12:54:46.532Z,10.75
2023-02-09T12:57:50.196Z,10.20
2023-02-09T13:00:32.505Z,10.10
2023-02-09T13:03:30.167Z,10.70
2023-02-09T13:06:16.184Z,9.73
2023-02-09T13:08:53.385Z,10.27
2023-02-09T13:11:31.909Z,10.52
2023-02-09T13:14:09.631Z,10.30
2023-02-09T13:17:21.697Z,11.80
2023-02-09T13:20:32.311Z,11.20
2023-02-09T13:23:20.586Z,11.98
2023-02-09T13:26:01.586Z,11.45
2023-02-09T13:28:35.286Z,10.30
2023-02-09T13:31:23.892Z,10.55
2023-02-09T13:34:04.133Z,11.15
2023-02-09T13:36:47.347Z,10.85
2023-02-09T13:39:24.587Z,10.85
2023-02-09T13:41:58.700Z,10.50
2023-02-09T13:44:32.358Z,10.60
2023-02-09T13:47:10.351Z,11.20
2023-02-09T13:49:55.786Z,10.13
2023-02-09T13:52:38.642Z,11.13
2023-02-09T13:55:17.362Z,12.27
2023-02-09T13:57:59.945Z,11.68
2023-02-09T14:00:41.307Z,11.20
2023-02-09T14:03:18.823Z,10.48
2023-02-09T14:05:56.441Z,13.60
2023-02-09T14:08:34.148Z,11.20
2023-02-09T14:11:17.008Z,12.43
2023-02-09T14:13:54.414Z,11.65
2023-02-09T14:16:29.256Z,11.70
2023-02-09T14:19:03.659Z,12.70
2023-02-09T14:21:46.108Z,11.88
2023-02-09T14:24:22.925Z,11.93
2023-02-09T14:27:03.812Z,11.45
2023-02-09T14:29:38.606Z,11.82
2023-02-09T14:32:32.168Z,11.32
2023-02-09T14:35:19.829Z,11.55
2023-02-09T14:37:55.661Z,11.32
2023-02-09T14:40:34.175Z,10.88
2023-02-09T14:43:24.702Z,11.57
2023-02-09T14:46:01.182Z,12.10
2023-02-09T14:48:34.726Z,11.85
2023-02-09T14:51:15.886Z,12.05
2023-02-09T14:53:50.393Z,11.60
2023-02-09T14:56:31.269Z,12.35
2023-02-09T14:59:06.416Z,11.65
2023-02-09T15:01:40.371Z,12.05
2023-02-09T15:04:14.212Z,12.63
2023-02-09T15:06:51.259Z,12.73
2023-02-09T15:09:35.079Z,12.38
2023-02-09T15:12:21.710Z,11.57
2023-02-09T15:14:57.837Z,10.82
2023-02-09T15:17:32.364Z,11.27
2023-02-09T15:20:06.747Z,11.20
2023-02-09T15:22:40.529Z,11.50
2023-02-09T15:25:14.767Z,12.20
2023-02-09T15:27:52.520Z,11.23
2023-02-09T15:30:28.984Z,10.93
2023-02-09T15:33:03.426Z,11.38
2023-02-09T15:35:37.981Z,12.98
2023-02-09T15:38:14.458Z,11.57
2023-02-09T15:41:07.379Z,11.23
2023-02-09T15:44:00.694Z,11.55
2023-02-09T15:46:51.672Z,11.45
2023-02-09T15:49:25.734Z,11.48
2023-02-09T15:51:59.640Z,12.15
2023-02-09T15:54:34.081Z,12.73
2023-02-09T15:57:11.937Z,12.35
2023-02-09T15:59:48.225Z,12.75
2023-02-09T16:02:22.394Z,12.07
2023-02-09T16:04:56.319Z,12.98
2023-02-09T16:07:29.976Z,12.25
2023-02-09T16:10:04.374Z,12.82
2023-02-09T16:12:38.394Z,12.20
2023-02-09T16:15:18.958Z,12.48
2023-02-09T16:17:52.958Z,12.57
2023-02-09T16:20:26.846Z,12.98
2023-02-09T16:23:11.800Z,12.00
2023-02-09T16:25:54.500Z,12.65
2023-02-09T16:28:28.498Z,13.10
2023-02-09T16:31:03.683Z,12.15
2023-02-09T16:33:38.788Z,12.23
2023-02-09T16:36:16.772Z,12.85
2023-02-09T16:38:51.388Z,12.53
2023-02-09T16:41:42.743Z,11.50
2023-02-09T16:44:19.797Z,12.25
2023-02-09T16:46:57.868Z,13.40
2023-02-09T16:49:36.333Z,13.03
2023-02-09T16:52:16.507Z,13.32
2023-02-09T16:54:53.132Z,11.30
2023-02-09T16:57:28.728Z,11.50
2023-02-09T17:00:02.373Z,13.02
2023-02-09T17:02:40.945Z,11.73
2023-02-09T17:05:19.012Z,12.60
2023-02-09T17:07:56.329Z,13.38
2023-02-09T17:10:32.335Z,13.68
2023-02-09T17:13:06.402Z,13.85
2023-02-09T17:15:44.089Z,13.55
2023-02-09T17:18:21.995Z,13.23
2023-02-09T17:20:58.684Z,12.80
2023-02-09T17:23:32.605Z,14.10
2023-02-09T17:26:06.557Z,13.90
2023-02-09T17:28:41.383Z,12.70
2023-02-09T17:31:18.976Z,12.93
2023-02-09T17:33:57.014Z,12.52
2023-02-09T17:36:31.950Z,12.93
2023-02-09T17:39:05.955Z,12.85
2023-02-09T17:41:44.883Z,13.40
2023-02-09T17:44:31.985Z,12.20
2023-02-09T17:47:10.707Z,13.80
2023-02-09T17:49:46.319Z,14.23
2023-02-09T17:52:21.549Z,12.93
2023-02-09T17:54:55.440Z,13.18
2023-02-09T17:57:29.315Z,13.35
2023-02-09T18:00:04.007Z,13.88
2023-02-09T18:02:37.934Z,13.30
2023-02-09T18:05:19.048Z,13.65
2023-02-09T18:07:53.683Z,13.25
2023-02-09T18:10:27.620Z,13.25
2023-02-09T18:13:01.604Z,14.05
2023-02-09T18:15:40.728Z,13.52
2023-02-09T18:18:14.625Z,14.52
2023-02-09T18:20:49.900Z,14.93
2023-02-09T18:23:23.842Z,14.27
2023-02-09T18:25:57.621Z,15.25
2023-02-09T18:28:31.434Z,14.43
2023-02-09T18:31:06.435Z,13.50
2023-02-09T18:33:40.058Z,14.60
2023-02-09T18:36:15.900Z,14.18
2023-02-09T18:38:50.972Z,14.80
2023-02-09T18:41:24.997Z,15.30
2023-02-09T18:43:58.697Z,14.07
2023-02-09T18:46:32.585Z,14.57
2023-02-09T18:49:06.278Z,15.43
2023-02-09T18:51:42.551Z,14.45
2023-02-09T18:54:16.626Z,15.30
2023-02-09T18:56:50.381Z,15.75
2023-02-09T18:59:23.919Z,16.63
2023-02-09T19:01:58.372Z,15.57
2023-02-09T19:04:31.904Z,15.80
2023-02-09T19:07:09.619Z,16.40
2023-02-09T19:09:45.933Z,15.95
2023-02-09T19:12:19.826Z,15.65
2023-02-09T19:14:53.606Z,16.67
2023-02-09T19:17:27.600Z,14.98
2023-02-09T19:20:03.787Z,15.50
2023-02-09T19:22:38.983Z,15.43
2023-02-09T19:25:12.488Z,15.50
2023-02-09T19:27:46.391Z,15.07
2023-02-09T19:30:24.835Z,16.55
2023-02-09T19:32:58.962Z,15.38
2023-02-09T19:35:32.885Z,19.17
2023-02-09T19:38:08.327Z,18.05
2023-02-09T19:40:42.463Z,15.57
2023-02-09T19:43:16.401Z,16.60
2023-02-09T19:45:56.708Z,15.25
2023-02-09T19:48:30.431Z,16.83
2023-02-09T19:51:04.059Z,16.55
2023-02-09T19:53:39.428Z,17.00
2023-02-09T19:56:16.797Z,17.45
2023-02-09T19:58:51.410Z,16.80
2023-02-09T20:01:26.920Z,18.45
2023-02-09T20:04:00.853Z,17.60
2023-02-09T20:06:34.827Z,17.77
2023-02-09T20:09:12.149Z,17.40
2023-02-09T20:11:45.743Z,19.17
2023-02-09T20:14:19.630Z,18.40
2023-02-09T20:16:53.667Z,18.00
2023-02-09T20:19:27.643Z,18.92
2023-02-09T20:22:01.512Z,18.40
2023-02-09T20:24:36.957Z,18.52
2023-02-09T20:27:11.211Z,19.48
2023-02-09T20:29:44.938Z,18.73
2023-02-09T20:32:18.681Z,20.30
2023-02-09T20:34:52.581Z,19.38
2023-02-09T20:37:26.354Z,19.63
2023-02-09T20:40:01.708Z,20.85
2023-02-09T20:42:52.815Z,20.48
2023-02-09T20:45:44.133Z,19.48
2023-02-09T20:48:17.996Z,19.98
2023-02-09T20:50:51.931Z,18.88
2023-02-09T20:53:25.476Z,20.05
2023-02-09T20:56:00.568Z,19.67
2023-02-09T20:58:34.117Z,19.77
2023-02-09T21:01:08.044Z,18.60
2023-02-09T21:03:41.937Z,18.88
2023-02-09T21:06:16.127Z,19.75
2023-02-09T21:08:50.415Z,19.67
2023-02-09T21:11:25.535Z,21.10
2023-02-09T21:14:01.184Z,21.00
2023-02-09T21:16:36.411Z,21.50
2023-02-09T21:19:09.961Z,21.17
2023-02-09T21:21:43.745Z,20.85
2023-02-09T21:24:17.557Z,21.02
2023-02-09T21:26:52.809Z,22.55
2023-02-09T21:29:26.496Z,22.08
2023-02-09T21:32:02.522Z,22.23
2023-02-09T21:34:36.295Z,20.95
2023-02-09T21:37:12.997Z,22.98
2023-02-09T21:39:46.556Z,23.27
2023-02-09T21:42:28.413Z,24.05
2023-02-09T21:45:02.267Z,23.73
2023-02-09T21:47:39.236Z,23.45
2023-02-09T21:50:14.074Z,23.17
2023-02-09T21:52:49.747Z,22.20
2023-02-09T21:55:23.338Z,21.85
2023-02-09T21:57:59.250Z,21.38
2023-02-09T22:00:32.890Z,21.33
2023-02-09T22:03:06.930Z,20.75
2023-02-09T22:05:40.552Z,23.20
2023-02-09T22:08:14.347Z,22.98
2023-02-09T22:10:50.701Z,19.67
2023-02-09T22:13:26.319Z,21.55
2023-02-09T22:16:00.013Z,21.30
2023-02-09T22:18:34.640Z,21.55
2023-02-09T22:21:09.037Z,20.90
2023-02-09T22:23:42.744Z,19.73
2023-02-09T22:26:16.426Z,22.05
2023-02-09T22:28:51.789Z,22.85
2023-02-09T22:31:25.500Z,22.25
2023-02-09T22:33:59.410Z,21.48
2023-02-09T22:36:33.230Z,22.05
2023-02-09T22:39:07.863Z,21.45
2023-02-09T22:41:44.333Z,20.95
2023-02-09T22:44:19.594Z,22.50
2023-02-09T22:46:53.630Z,21.27
2023-02-09T22:49:27.466Z,22.10
2023-02-09T22:52:01.224Z,21.95
2023-02-09T22:54:35.143Z,22.67
2023-02-09T22:57:08.878Z,25.85
2023-02-09T22:59:44.240Z,24.05
2023-02-09T23:02:18.037Z,21.63
2023-02-09T23:04:51.852Z,20.58
2023-02-09T23:07:25.488Z,21.92
2023-02-09T23:09:59.278Z,22.33
2023-02-09T23:12:33.148Z,22.20
2023-02-09T23:15:09.589Z,22.58
2023-02-09T23:17:43.369Z,21.92
2023-02-09T23:20:17.249Z,22.08
2023-02-09T23:22:50.995Z,22.15
2023-02-09T23:25:24.970Z,21.35
2023-02-09T23:27:58.528Z,21.05
2023-02-09T23:30:35.099Z,21.30
2023-02-09T23:33:08.973Z,20.42
2023-02-09T23:35:43.051Z,20.65
2023-02-09T23:38:17.923Z,21.33
2023-02-09T23:40:51.896Z,23.30
2023-02-09T23:43:26.012Z,21.70
2023-02-09T23:46:02.796Z,21.65
2023-02-09T23:48:36.547Z,22.25
2023-02-09T23:51:13.907Z,22.13
2023-02-09T23:53:47.989Z,20.77
2023-02-09T23:56:22.831Z,21.98
2023-02-09T23:58:56.948Z,20.65
